This is the latest recevied weather packets stored in our database for station/object YO8KGT-13. If no packets are shown the sender has not sent any weather packets the latest 1 day(s).
| Time | Temp. | Humidity | Pressure | Rain* | Wind** | Luminosity | Snow |
|---|---|---|---|---|---|---|---|
| 1778094866 | 17.78° C | 44% | 942 hPa | 0 mm | - | - | - |
| 1778094266 | 18.33° C | 44% | 942 hPa | 0 mm | - | - | - |
| 1778093067 | 18.89° C | 42% | 942 hPa | 0 mm | - | - | - |
| 1778090967 | 20° C | 38% | 941 hPa | 0 mm | - | - | - |
| 1778090366 | 20° C | 38% | 941 hPa | 0 mm | - | - | - |
| 1778089166 | 20.56° C | 36% | 941 hPa | 0 mm | - | - | - |
| 1778088279 | 21.11° C | 35% | 941 hPa | 0 mm | - | - | - |
| 1778084366 | 23.89° C | 29% | 941 hPa | 0 mm | - | - | - |
| 1778084066 | 23.89° C | 29% | 941 hPa | 0 mm | - | - | - |
| 1778077466 | 27.78° C | 25% | 941 hPa | 0 mm | - | - | - |
| 1778077168 | 28.33° C | 25% | 941 hPa | 0 mm | - | - | - |
| 1778076566 | 28.89° C | 25% | 941 hPa | 0 mm | - | - | - |
| 1778075367 | 29.44° C | 23% | 941 hPa | 0 mm | - | - | - |
| 1778071468 | 31.67° C | 21% | 941 hPa | 0 mm | - | - | - |
| 1778071167 | 32.22° C | 21% | 941 hPa | 0 mm | - | - | - |
| 1778070867 | 32.22° C | 21% | 941 hPa | 0 mm | - | - | - |
| 1778067565 | 32.78° C | 21% | 942 hPa | 0 mm | - | - | - |
| 1778065765 | 33.33° C | 22% | 942 hPa | 0 mm | - | - | - |
| 1778064010 | 33.33° C | 24% | 942 hPa | 0 mm | - | - | - |
| 1778063670 | 33.33° C | 24% | 942 hPa | 0 mm | - | - | - |
| 1778062165 | 32.22° C | 25% | 943 hPa | 0 mm | - | - | - |
| 1778061300 | 31.67° C | 26% | 943 hPa | 0 mm | - | - | - |
| 1778060969 | 31.11° C | 26% | 943 hPa | 0 mm | - | - | - |
| 1778060665 | 31.11° C | 26% | 943 hPa | 0 mm | - | - | - |
| 1778060068 | 30.56° C | 27% | 943 hPa | 0 mm | - | - | - |
* Rain latest hour (hover to see other rain measurements)
** Current wind speed in m/s (hover to see current wind gust speed)